createdAt,value
2017-09-06T00:00:03.439Z,10.00
2017-09-06T00:02:32.146Z,10.00
2017-09-06T00:05:00.851Z,10.00
2017-09-06T00:07:30.330Z,10.00
2017-09-06T00:10:00.396Z,10.00
2017-09-06T00:17:44.427Z,10.00
2017-09-06T00:20:16.775Z,10.00
2017-09-06T00:22:45.434Z,10.00
2017-09-06T00:25:15.062Z,10.00
2017-09-06T00:27:43.880Z,10.10
2017-09-06T00:30:12.184Z,10.10
2017-09-06T00:32:41.279Z,10.00
2017-09-06T00:35:11.171Z,10.10
2017-09-06T00:37:40.074Z,10.00
2017-09-06T00:40:08.895Z,10.00
2017-09-06T00:42:37.698Z,9.90
2017-09-06T00:45:06.311Z,9.90
2017-09-06T00:47:34.951Z,10.00
2017-09-06T00:50:03.520Z,10.00
2017-09-06T00:52:31.495Z,10.00
2017-09-06T00:55:00.362Z,10.00
2017-09-06T00:57:30.043Z,10.00
2017-09-06T00:59:59.610Z,10.00
2017-09-06T01:02:28.247Z,10.00
2017-09-06T01:04:56.825Z,10.10
2017-09-06T01:07:25.413Z,10.20
2017-09-06T01:09:53.997Z,10.20
2017-09-06T01:12:24.070Z,10.20
2017-09-06T01:14:53.458Z,10.30
2017-09-06T01:17:24.127Z,10.30
2017-09-06T01:19:52.499Z,10.30
2017-09-06T01:22:22.354Z,10.30
2017-09-06T01:24:52.589Z,10.40
2017-09-06T01:27:22.437Z,10.40
2017-09-06T01:29:53.051Z,10.40
2017-09-06T01:32:22.034Z,10.40
2017-09-06T01:34:50.839Z,10.40
2017-09-06T01:37:19.419Z,10.40
2017-09-06T01:39:48.702Z,10.40
2017-09-06T01:42:16.982Z,10.50
2017-09-06T01:44:46.274Z,10.40
2017-09-06T01:47:14.167Z,10.40
2017-09-06T01:49:42.887Z,10.40
2017-09-06T01:52:12.290Z,10.50
2017-09-06T01:54:40.935Z,10.50
2017-09-06T01:57:09.595Z,10.50
2017-09-06T01:59:38.275Z,10.50
2017-09-06T02:02:06.879Z,10.50
2017-09-06T02:04:36.105Z,10.50
2017-09-06T02:07:06.413Z,10.50
2017-09-06T02:09:36.030Z,10.40
2017-09-06T02:12:05.595Z,10.40
2017-09-06T02:14:36.689Z,10.40
2017-09-06T02:17:05.614Z,10.40
2017-09-06T02:19:35.847Z,10.40
2017-09-06T02:22:04.617Z,10.50
2017-09-06T02:24:34.198Z,10.60
2017-09-06T02:30:01.468Z,10.60
2017-09-06T02:32:30.067Z,10.60
2017-09-06T02:34:59.478Z,10.50
2017-09-06T02:37:30.209Z,10.50
2017-09-06T02:40:08.774Z,10.50
2017-09-06T02:42:38.150Z,10.40
2017-09-06T02:45:08.342Z,10.40
2017-09-06T02:50:23.183Z,10.30
2017-09-06T02:52:58.135Z,10.40
2017-09-06T02:55:27.556Z,10.40
2017-09-06T02:57:58.646Z,10.40
2017-09-06T03:00:28.045Z,10.40
2017-09-06T03:02:58.756Z,10.40
2017-09-06T03:08:09.449Z,10.30
2017-09-06T03:10:39.993Z,10.40
2017-09-06T03:15:46.732Z,10.40
2017-09-06T03:18:16.022Z,10.30
2017-09-06T03:20:47.797Z,10.40
2017-09-06T03:23:17.546Z,10.40
2017-09-06T03:25:52.980Z,10.40
2017-09-06T03:28:22.885Z,10.30
2017-09-06T03:30:53.706Z,10.30
2017-09-06T03:33:22.530Z,10.30
2017-09-06T03:35:51.267Z,10.30
2017-09-06T03:38:19.953Z,10.20
2017-09-06T03:40:49.494Z,10.20
2017-09-06T03:45:54.924Z,10.20
2017-09-06T03:50:59.330Z,10.30
2017-09-06T03:53:30.017Z,10.30
2017-09-06T03:56:01.537Z,10.20
2017-09-06T03:58:31.792Z,10.30
2017-09-06T04:01:00.396Z,10.40
2017-09-06T04:03:29.222Z,10.40
2017-09-06T04:06:00.518Z,10.50
2017-09-06T04:08:30.625Z,10.40
2017-09-06T04:11:00.091Z,10.40
2017-09-06T04:13:29.770Z,10.50
2017-09-06T04:16:00.235Z,10.50
2017-09-06T04:18:35.707Z,10.60
2017-09-06T04:21:05.808Z,10.70
2017-09-06T04:23:37.336Z,10.80
2017-09-06T04:29:33.860Z,11.00
2017-09-06T04:32:06.893Z,11.30
2017-09-06T04:34:36.854Z,11.20
2017-09-06T04:37:07.549Z,11.30
2017-09-06T04:39:36.801Z,11.40
2017-09-06T04:42:06.030Z,11.50
2017-09-06T04:44:41.756Z,11.50
2017-09-06T04:47:19.384Z,11.60
2017-09-06T04:49:57.883Z,11.60
2017-09-06T04:55:03.857Z,11.60
2017-09-06T04:57:41.255Z,11.70
2017-09-06T05:03:19.336Z,11.90
2017-09-06T05:05:50.180Z,11.90
2017-09-06T05:08:24.092Z,11.90
2017-09-06T05:10:54.606Z,11.90
2017-09-06T05:13:23.764Z,12.00
2017-09-06T05:15:52.414Z,12.10
2017-09-06T05:18:22.307Z,12.10
2017-09-06T05:23:24.871Z,12.20
2017-09-06T05:25:53.762Z,12.20
2017-09-06T05:28:24.582Z,12.20
2017-09-06T05:30:53.183Z,12.30
2017-09-06T05:33:21.697Z,12.40
2017-09-06T05:35:50.173Z,12.50
2017-09-06T05:38:18.745Z,12.50
2017-09-06T05:40:47.218Z,12.50
2017-09-06T05:43:15.689Z,12.60
2017-09-06T05:45:44.909Z,12.80
2017-09-06T05:48:13.335Z,12.80
2017-09-06T05:50:41.806Z,12.90
2017-09-06T05:53:10.482Z,13.10
2017-09-06T05:55:38.922Z,13.30
2017-09-06T05:58:07.374Z,13.50
2017-09-06T06:00:35.793Z,13.70
2017-09-06T06:03:04.234Z,14.00
2017-09-06T06:05:32.661Z,14.30
2017-09-06T06:08:01.175Z,14.50
2017-09-06T06:10:29.645Z,14.60
2017-09-06T06:12:58.078Z,14.70
2017-09-06T06:15:26.486Z,15.00
2017-09-06T06:17:54.958Z,15.20
2017-09-06T06:20:22.782Z,15.60
2017-09-06T06:22:51.257Z,15.90
2017-09-06T06:25:19.747Z,16.20
2017-09-06T06:27:48.205Z,16.40
2017-09-06T06:30:16.666Z,16.30
2017-09-06T06:32:44.967Z,16.40
2017-09-06T06:35:13.395Z,16.40
2017-09-06T06:37:42.602Z,16.30
2017-09-06T06:40:11.114Z,16.30
2017-09-06T06:42:39.574Z,16.30
2017-09-06T06:45:08.011Z,16.20
2017-09-06T06:47:36.482Z,16.10
2017-09-06T06:50:04.959Z,16.00
2017-09-06T06:52:33.429Z,16.00
2017-09-06T06:55:01.907Z,16.00
2017-09-06T06:57:30.369Z,16.00
2017-09-06T06:59:58.809Z,16.10
2017-09-06T07:02:27.329Z,16.20
2017-09-06T07:04:56.530Z,16.20
2017-09-06T07:07:24.959Z,16.20
2017-09-06T07:09:53.428Z,16.10
2017-09-06T07:12:21.853Z,16.10
2017-09-06T07:14:50.105Z,16.00
2017-09-06T07:17:18.581Z,16.00
2017-09-06T07:19:46.806Z,15.90
2017-09-06T07:22:15.230Z,15.80
2017-09-06T07:24:43.710Z,15.80
2017-09-06T07:27:12.134Z,15.90
2017-09-06T07:29:40.566Z,15.90
2017-09-06T07:32:08.994Z,16.00
2017-09-06T07:34:37.471Z,16.10
2017-09-06T07:37:05.906Z,16.20
2017-09-06T07:39:34.329Z,16.30
2017-09-06T07:42:02.764Z,16.50
2017-09-06T07:44:31.182Z,16.60
2017-09-06T07:46:59.621Z,16.80
2017-09-06T07:49:28.037Z,16.70
2017-09-06T07:51:56.429Z,16.70
2017-09-06T07:54:24.844Z,16.80
2017-09-06T07:56:53.249Z,16.70
2017-09-06T07:59:21.651Z,16.80
2017-09-06T08:01:50.098Z,16.70
2017-09-06T08:04:18.598Z,16.80
2017-09-06T08:06:46.830Z,16.80
2017-09-06T08:09:16.046Z,17.10
2017-09-06T08:11:44.305Z,17.10
2017-09-06T08:14:12.786Z,17.50
2017-09-06T08:16:41.208Z,17.50
2017-09-06T08:19:09.648Z,17.70
2017-09-06T08:21:38.081Z,17.90
2017-09-06T08:24:06.503Z,18.30
2017-09-06T08:26:34.913Z,18.50
2017-09-06T08:29:03.386Z,18.70
2017-09-06T08:31:31.817Z,19.00
2017-09-06T08:34:00.246Z,19.20
2017-09-06T08:36:28.722Z,19.50
2017-09-06T08:38:57.158Z,19.80
2017-09-06T08:41:25.587Z,20.20
2017-09-06T08:43:54.056Z,20.70
2017-09-06T08:46:22.475Z,21.30
2017-09-06T08:48:50.905Z,22.10
2017-09-06T08:51:19.327Z,22.30
2017-09-06T08:53:47.740Z,23.80
2017-09-06T08:56:16.178Z,24.80
2017-09-06T08:58:44.659Z,27.00
2017-09-06T09:01:12.949Z,27.30
2017-09-06T09:03:41.373Z,28.50
2017-09-06T09:06:09.809Z,30.60
2017-09-06T09:08:38.279Z,30.70
2017-09-06T09:11:06.688Z,30.30
2017-09-06T09:13:35.149Z,29.50
2017-09-06T09:16:03.572Z,29.60
2017-09-06T09:18:32.015Z,29.90
2017-09-06T09:21:00.474Z,31.30
2017-09-06T09:23:28.901Z,32.10
2017-09-06T09:25:57.342Z,32.80
2017-09-06T09:28:25.664Z,33.40
2017-09-06T09:30:54.157Z,34.10
2017-09-06T09:33:22.603Z,33.40
2017-09-06T09:35:51.085Z,33.10
2017-09-06T09:38:19.577Z,34.10
2017-09-06T09:40:48.055Z,34.40
2017-09-06T09:43:16.521Z,33.80
2017-09-06T09:45:46.735Z,34.60
2017-09-06T09:48:15.233Z,35.80
2017-09-06T09:50:43.720Z,33.80
2017-09-06T09:53:12.195Z,32.70
2017-09-06T09:55:40.646Z,31.30
2017-09-06T09:58:09.151Z,30.10
2017-09-06T10:00:37.266Z,29.50
2017-09-06T10:03:05.722Z,29.00
2017-09-06T10:05:34.206Z,27.80
2017-09-06T10:08:02.679Z,26.90
2017-09-06T10:10:31.123Z,26.10
2017-09-06T10:12:59.620Z,25.80
2017-09-06T10:15:28.075Z,25.50
2017-09-06T10:17:56.551Z,25.50
2017-09-06T10:20:24.985Z,26.10
2017-09-06T10:22:53.161Z,26.60
2017-09-06T10:25:21.905Z,26.90
2017-09-06T10:27:50.410Z,27.70
2017-09-06T10:30:19.681Z,32.00
2017-09-06T10:32:48.172Z,31.90
2017-09-06T10:35:16.689Z,31.90
2017-09-06T10:37:45.393Z,31.30
2017-09-06T10:40:14.109Z,30.80
2017-09-06T10:42:42.665Z,29.50
2017-09-06T10:45:11.151Z,29.20
2017-09-06T10:47:39.653Z,29.00
2017-09-06T10:50:08.182Z,29.50
2017-09-06T10:52:36.693Z,30.10
2017-09-06T10:55:05.214Z,31.90
2017-09-06T10:57:33.709Z,33.70
2017-09-06T11:00:02.165Z,34.10
2017-09-06T11:02:30.624Z,33.30
2017-09-06T11:04:59.876Z,32.00
2017-09-06T11:07:28.353Z,31.90
2017-09-06T11:09:56.821Z,30.90
2017-09-06T11:12:25.325Z,30.40
2017-09-06T11:14:53.807Z,29.30
2017-09-06T11:17:22.298Z,28.30
2017-09-06T11:19:50.829Z,27.40
2017-09-06T11:22:19.323Z,26.70
2017-09-06T11:24:48.285Z,26.20
2017-09-06T11:27:16.845Z,25.90
2017-09-06T11:29:45.361Z,25.60
2017-09-06T11:32:14.609Z,25.40
2017-09-06T11:34:43.137Z,25.30
2017-09-06T11:37:12.401Z,24.70
2017-09-06T11:39:40.890Z,24.70
2017-09-06T11:42:09.631Z,24.80
2017-09-06T11:44:38.127Z,25.10
2017-09-06T11:47:06.637Z,25.20
2017-09-06T11:49:35.151Z,25.20
2017-09-06T11:52:03.649Z,25.10
2017-09-06T11:54:32.130Z,24.90
2017-09-06T11:57:00.675Z,24.90
2017-09-06T11:59:29.199Z,24.90
2017-09-06T12:01:57.699Z,25.30
2017-09-06T12:04:27.004Z,26.50
2017-09-06T12:06:55.890Z,26.50
2017-09-06T12:09:24.212Z,26.70
2017-09-06T12:11:52.579Z,26.90
2017-09-06T12:14:21.083Z,26.70
2017-09-06T12:16:49.796Z,26.70
2017-09-06T12:19:18.309Z,26.30
2017-09-06T12:21:46.787Z,26.00
2017-09-06T12:24:15.282Z,25.50
2017-09-06T12:26:43.826Z,25.30
2017-09-06T12:29:12.337Z,24.90
2017-09-06T12:31:40.846Z,24.80
2017-09-06T12:34:09.369Z,24.50
2017-09-06T12:36:37.854Z,24.30
2017-09-06T12:39:06.325Z,24.40
2017-09-06T12:41:34.886Z,24.20
2017-09-06T12:44:03.366Z,24.10
2017-09-06T12:46:31.834Z,23.80
2017-09-06T12:49:00.344Z,24.10
2017-09-06T12:51:29.167Z,24.00
2017-09-06T12:53:57.650Z,24.00
2017-09-06T12:56:26.359Z,23.80
2017-09-06T12:58:54.860Z,23.90
2017-09-06T13:01:23.318Z,23.70
2017-09-06T13:03:51.764Z,23.50
2017-09-06T13:06:20.246Z,23.30
2017-09-06T13:08:48.654Z,23.30
2017-09-06T13:11:17.063Z,23.30
2017-09-06T13:13:45.560Z,23.20
2017-09-06T13:16:15.560Z,23.20
2017-09-06T13:18:44.025Z,23.40
2017-09-06T13:21:12.564Z,23.20
2017-09-06T13:23:41.077Z,23.20
2017-09-06T13:26:09.494Z,23.00
2017-09-06T13:28:37.991Z,23.10
2017-09-06T13:31:06.484Z,23.10
2017-09-06T13:33:39.605Z,23.30
2017-09-06T13:36:08.106Z,23.50
2017-09-06T13:38:43.738Z,23.90
2017-09-06T13:41:12.294Z,23.90
2017-09-06T13:43:40.790Z,24.00
2017-09-06T13:46:09.258Z,24.80
2017-09-06T13:48:37.574Z,25.80
2017-09-06T13:51:06.042Z,26.20
2017-09-06T13:53:36.091Z,26.60
2017-09-06T13:56:06.740Z,27.00
2017-09-06T14:01:08.669Z,26.00
2017-09-06T14:03:37.120Z,26.10
2017-09-06T14:06:05.582Z,26.10
2017-09-06T14:08:34.143Z,26.00
2017-09-06T14:11:02.628Z,26.10
2017-09-06T14:13:34.369Z,26.00
2017-09-06T14:16:03.022Z,25.90
2017-09-06T14:18:31.728Z,26.00
2017-09-06T14:21:00.224Z,25.90
2017-09-06T14:23:28.708Z,26.00
2017-09-06T14:25:57.188Z,26.00
2017-09-06T14:28:26.428Z,26.50
2017-09-06T14:30:56.770Z,26.50
2017-09-06T14:33:25.267Z,26.80
2017-09-06T14:35:54.951Z,26.60
2017-09-06T14:38:23.440Z,26.30
2017-09-06T14:40:51.913Z,26.10
2017-09-06T14:43:37.167Z,25.80
2017-09-06T14:48:40.273Z,25.30
2017-09-06T14:51:22.891Z,24.90
2017-09-06T14:53:54.527Z,24.80
2017-09-06T14:56:23.011Z,24.90
2017-09-06T14:58:51.504Z,24.80
2017-09-06T15:01:19.823Z,24.70
2017-09-06T15:03:48.338Z,24.30
2017-09-06T15:06:16.840Z,24.00
2017-09-06T15:08:45.339Z,23.70
2017-09-06T15:11:13.833Z,23.30
2017-09-06T15:13:42.310Z,23.20
2017-09-06T15:16:10.768Z,22.70
2017-09-06T15:18:39.274Z,22.50
2017-09-06T15:21:07.749Z,22.40
2017-09-06T15:23:39.266Z,22.40
2017-09-06T15:26:07.787Z,22.40
2017-09-06T15:28:36.271Z,22.30
2017-09-06T15:31:04.737Z,22.20
2017-09-06T15:33:33.276Z,22.00
2017-09-06T15:36:01.769Z,21.80
2017-09-06T15:38:31.011Z,21.60
2017-09-06T15:40:59.347Z,21.70
2017-09-06T15:43:28.046Z,21.40
2017-09-06T15:45:56.535Z,21.40
2017-09-06T15:48:25.020Z,21.50
2017-09-06T15:50:53.519Z,21.10
2017-09-06T15:53:22.028Z,20.80
2017-09-06T15:55:50.498Z,20.70
2017-09-06T15:58:19.005Z,20.70
2017-09-06T16:00:47.487Z,20.70
2017-09-06T16:03:15.900Z,20.80
2017-09-06T16:05:45.405Z,20.70
2017-09-06T16:08:13.889Z,20.70
2017-09-06T16:10:42.381Z,20.60
2017-09-06T16:13:10.842Z,20.50
2017-09-06T16:15:40.119Z,20.40
2017-09-06T16:18:08.554Z,20.50
2017-09-06T16:20:38.359Z,20.50
2017-09-06T16:23:10.513Z,20.40
2017-09-06T16:25:38.994Z,20.40
2017-09-06T16:28:07.288Z,20.40
2017-09-06T16:30:35.773Z,20.30
2017-09-06T16:33:04.232Z,20.10
2017-09-06T16:35:34.304Z,20.10
2017-09-06T16:38:02.866Z,19.90
2017-09-06T16:40:31.345Z,19.80
2017-09-06T16:42:59.818Z,19.60
2017-09-06T16:45:28.341Z,19.50
2017-09-06T16:47:56.803Z,19.40
2017-09-06T16:50:25.268Z,19.20
2017-09-06T16:52:53.789Z,19.10
2017-09-06T16:55:22.329Z,19.00
2017-09-06T16:57:50.784Z,19.00
2017-09-06T17:00:19.303Z,19.00
2017-09-06T17:02:47.786Z,18.80
2017-09-06T17:05:16.261Z,18.70
2017-09-06T17:07:45.091Z,18.50
2017-09-06T17:10:13.603Z,18.30
2017-09-06T17:12:42.048Z,18.30
2017-09-06T17:15:10.487Z,18.20
2017-09-06T17:17:38.978Z,18.10
2017-09-06T17:20:07.397Z,18.10
2017-09-06T17:22:35.810Z,18.10
2017-09-06T17:25:04.254Z,18.10
2017-09-06T17:27:32.680Z,18.00
2017-09-06T17:30:01.134Z,17.90
2017-09-06T17:32:29.602Z,17.90
2017-09-06T17:34:58.049Z,17.90
2017-09-06T17:37:26.505Z,17.90
2017-09-06T17:39:54.939Z,17.90
2017-09-06T17:42:23.386Z,17.80
2017-09-06T17:44:51.825Z,17.80
2017-09-06T17:47:20.245Z,17.80
2017-09-06T17:49:48.658Z,17.70
2017-09-06T17:52:17.086Z,17.70
2017-09-06T17:54:45.502Z,17.70
2017-09-06T17:57:13.917Z,17.60
2017-09-06T17:59:42.361Z,17.60
2017-09-06T18:02:10.776Z,17.60
2017-09-06T18:04:39.213Z,17.50
2017-09-06T18:07:07.647Z,17.50
2017-09-06T18:09:36.068Z,17.60
2017-09-06T18:12:04.466Z,17.60
2017-09-06T18:14:32.886Z,17.60
2017-09-06T18:17:01.327Z,17.50
2017-09-06T18:19:29.747Z,17.50
2017-09-06T18:21:58.154Z,17.50
2017-09-06T18:24:26.624Z,17.50
2017-09-06T18:26:55.097Z,17.50
2017-09-06T18:29:23.526Z,17.40
2017-09-06T18:31:51.998Z,17.40
2017-09-06T18:34:20.414Z,17.50
2017-09-06T18:36:50.090Z,17.40
2017-09-06T18:39:18.542Z,17.40
2017-09-06T18:41:46.977Z,17.40
2017-09-06T18:44:15.410Z,17.40
2017-09-06T18:46:43.848Z,17.20
2017-09-06T18:49:12.311Z,17.30
2017-09-06T18:51:43.972Z,17.20
2017-09-06T18:54:12.433Z,17.10
2017-09-06T18:56:40.875Z,17.10
2017-09-06T18:59:09.352Z,17.10
2017-09-06T19:01:37.830Z,17.10
2017-09-06T19:04:06.278Z,17.00
2017-09-06T19:06:34.695Z,17.10
2017-09-06T19:09:03.178Z,17.10
2017-09-06T19:11:31.615Z,17.00
2017-09-06T19:14:00.034Z,17.00
2017-09-06T19:16:28.474Z,16.90
2017-09-06T19:18:57.299Z,16.90
2017-09-06T19:21:25.765Z,16.90
2017-09-06T19:23:54.558Z,16.90
2017-09-06T19:26:23.039Z,16.80
2017-09-06T19:28:51.538Z,16.80
2017-09-06T19:31:19.844Z,16.80
2017-09-06T19:33:48.600Z,16.80
2017-09-06T19:36:17.181Z,16.70
2017-09-06T19:38:45.702Z,16.70
2017-09-06T19:41:15.072Z,16.80
2017-09-06T19:43:43.883Z,16.70
2017-09-06T19:46:12.350Z,16.70
2017-09-06T19:48:40.902Z,16.60
2017-09-06T19:51:09.394Z,16.60
2017-09-06T19:53:38.168Z,16.50
2017-09-06T19:56:06.774Z,16.40
2017-09-06T19:58:35.895Z,16.30
2017-09-06T20:01:04.417Z,16.30
2017-09-06T20:03:32.956Z,16.40
2017-09-06T20:06:01.679Z,16.40
2017-09-06T20:08:30.184Z,16.40
2017-09-06T20:11:01.072Z,16.30
2017-09-06T20:13:29.673Z,16.30
2017-09-06T20:15:58.206Z,16.30
2017-09-06T20:18:26.725Z,16.30
2017-09-06T20:20:55.431Z,16.20
2017-09-06T20:23:23.906Z,16.30
2017-09-06T20:25:52.380Z,16.20
2017-09-06T20:28:20.910Z,16.20
2017-09-06T20:30:50.164Z,16.00
2017-09-06T20:33:18.679Z,16.00
2017-09-06T20:35:48.023Z,16.00
2017-09-06T20:38:16.525Z,16.00
2017-09-06T20:40:45.281Z,16.20
2017-09-06T20:43:14.121Z,16.20
2017-09-06T20:45:42.618Z,16.10
2017-09-06T20:48:13.363Z,16.00
2017-09-06T20:50:42.107Z,16.00
2017-09-06T20:53:10.632Z,16.00
2017-09-06T20:55:41.094Z,16.00
2017-09-06T20:58:09.601Z,16.00
2017-09-06T21:00:38.312Z,15.90
2017-09-06T21:03:06.812Z,15.70
2017-09-06T21:05:35.336Z,15.60
2017-09-06T21:08:03.564Z,15.50
2017-09-06T21:14:00.616Z,15.10
2017-09-06T21:16:29.381Z,15.10
2017-09-06T21:18:57.813Z,15.20
2017-09-06T21:21:26.250Z,15.10
2017-09-06T21:23:54.718Z,15.10
2017-09-06T21:26:23.169Z,15.00
2017-09-06T21:28:51.617Z,15.00
2017-09-06T21:31:20.027Z,15.00
2017-09-06T21:33:48.429Z,15.00
2017-09-06T21:36:16.887Z,14.90
2017-09-06T21:38:46.086Z,15.00
2017-09-06T21:41:14.524Z,15.00
2017-09-06T21:43:42.973Z,15.00
2017-09-06T21:46:11.401Z,15.00
2017-09-06T21:48:39.828Z,14.90
2017-09-06T21:51:08.285Z,14.90
2017-09-06T21:53:36.713Z,14.90
2017-09-06T21:56:05.195Z,14.90
2017-09-06T21:58:33.616Z,14.80
2017-09-06T22:01:02.078Z,14.80
2017-09-06T22:03:30.571Z,14.80
2017-09-06T22:05:59.034Z,14.80
2017-09-06T22:08:27.479Z,14.80
2017-09-06T22:10:55.963Z,14.80
2017-09-06T22:13:24.414Z,14.80
2017-09-06T22:15:52.874Z,14.90
2017-09-06T22:18:21.397Z,14.80
2017-09-06T22:20:51.502Z,14.80
2017-09-06T22:23:20.102Z,14.80
2017-09-06T22:25:49.618Z,14.80
2017-09-06T22:28:18.127Z,14.80
2017-09-06T22:30:46.798Z,14.80
2017-09-06T22:33:15.297Z,14.80
2017-09-06T22:35:43.758Z,14.80
2017-09-06T22:38:12.193Z,14.80
2017-09-06T22:40:40.645Z,14.90
2017-09-06T22:43:09.102Z,14.90
2017-09-06T22:45:37.570Z,15.00
2017-09-06T22:48:06.091Z,15.00
2017-09-06T22:50:34.527Z,15.00
2017-09-06T22:53:06.301Z,15.00
2017-09-06T22:55:34.817Z,15.00
2017-09-06T22:58:03.981Z,15.10
2017-09-06T23:00:32.526Z,15.10
2017-09-06T23:03:08.126Z,15.10
2017-09-06T23:05:36.615Z,15.20
2017-09-06T23:08:05.113Z,15.20
2017-09-06T23:10:33.597Z,15.20
2017-09-06T23:13:03.935Z,15.30
2017-09-06T23:15:32.592Z,15.40
2017-09-06T23:18:01.063Z,15.50
2017-09-06T23:20:31.865Z,15.60
2017-09-06T23:23:00.573Z,15.60
2017-09-06T23:25:29.935Z,15.60
2017-09-06T23:27:58.788Z,15.60
2017-09-06T23:30:27.346Z,15.70
2017-09-06T23:32:56.041Z,15.80
2017-09-06T23:35:24.730Z,15.90
2017-09-06T23:37:53.429Z,15.90
2017-09-06T23:40:22.022Z,15.90
2017-09-06T23:42:50.521Z,15.80
2017-09-06T23:45:19.124Z,15.90
2017-09-06T23:47:47.573Z,16.00
2017-09-06T23:50:16.137Z,16.10
2017-09-06T23:52:44.469Z,16.20
2017-09-06T23:55:13.059Z,16.30
2017-09-06T23:57:41.673Z,16.30
